createdAt,value
2023-03-11T00:02:14.004Z,100822.59
2023-03-11T00:04:40.509Z,100819.06
2023-03-11T00:07:09.236Z,100819.03
2023-03-11T00:09:35.834Z,100826.78
2023-03-11T00:12:02.646Z,100832.81
2023-03-11T00:14:29.280Z,100834.56
2023-03-11T00:16:55.790Z,100833.59
2023-03-11T00:19:22.290Z,100844.13
2023-03-11T00:21:48.765Z,100840.66
2023-03-11T00:24:15.229Z,100842.38
2023-03-11T00:26:41.667Z,100836.16
2023-03-11T00:29:08.229Z,100841.47
2023-03-11T00:31:34.764Z,100839.66
2023-03-11T00:34:01.259Z,100845.03
2023-03-11T00:36:31.566Z,100846.03
2023-03-11T00:38:59.340Z,100858.47
2023-03-11T00:41:26.209Z,100861.22
2023-03-11T00:43:52.792Z,100871.88
2023-03-11T00:46:19.510Z,100870.06
2023-03-11T00:48:45.907Z,100872.63
2023-03-11T00:51:15.149Z,100872.63
2023-03-11T00:53:42.926Z,100866.47
2023-03-11T00:56:14.938Z,100873.53
2023-03-11T00:58:43.968Z,100884.09
2023-03-11T01:01:13.052Z,100887.53
2023-03-11T01:03:40.462Z,100881.22
2023-03-11T01:06:07.462Z,100885.50
2023-03-11T01:08:34.374Z,100889.00
2023-03-11T01:11:01.465Z,100882.75
2023-03-11T01:13:29.540Z,100889.81
2023-03-11T01:15:57.234Z,100893.31
2023-03-11T01:18:24.453Z,100893.31
2023-03-11T01:20:51.581Z,100899.53
2023-03-11T01:23:19.444Z,100901.38
2023-03-11T01:25:46.722Z,100904.06
2023-03-11T01:28:13.426Z,100903.19
2023-03-11T01:30:41.579Z,100912.75
2023-03-11T01:33:13.433Z,100910.88
2023-03-11T01:35:42.187Z,100911.72
2023-03-11T01:38:08.686Z,100918.78
2023-03-11T01:40:42.616Z,100919.63
2023-03-11T01:43:45.406Z,100920.44
2023-03-11T01:46:42.700Z,100914.31
2023-03-11T01:49:12.074Z,100915.91
2023-03-11T01:51:41.298Z,100912.50
2023-03-11T01:54:13.100Z,100911.50
2023-03-11T01:56:42.414Z,100911.56
2023-03-11T01:59:12.765Z,100911.50
2023-03-11T02:01:48.361Z,100917.66
2023-03-11T02:04:16.104Z,100919.41
2023-03-11T02:06:42.795Z,100914.13
2023-03-11T02:09:09.458Z,100914.06
2023-03-11T02:11:36.467Z,100914.06
2023-03-11T02:14:06.550Z,100919.41
2023-03-11T02:16:33.211Z,100927.41
2023-03-11T02:19:09.161Z,100926.53
2023-03-11T02:21:36.069Z,100928.31
2023-03-11T02:24:28.006Z,100931.84
2023-03-11T02:27:05.563Z,100928.25
2023-03-11T02:29:33.658Z,100934.38
2023-03-11T02:32:06.242Z,100934.38
2023-03-11T02:34:35.318Z,100938.81
2023-03-11T02:37:05.584Z,100932.63
2023-03-11T02:39:42.135Z,100933.69
2023-03-11T02:42:24.792Z,100932.78
2023-03-11T02:45:12.295Z,100947.81
2023-03-11T02:47:40.530Z,100939.06
2023-03-11T02:50:13.756Z,100933.81
2023-03-11T02:52:40.248Z,100932.25
2023-03-11T02:55:08.491Z,100928.91
2023-03-11T02:57:34.936Z,100924.69
2023-03-11T03:00:08.609Z,100928.50
2023-03-11T03:02:43.425Z,100934.00
2023-03-11T03:05:11.444Z,100940.47
2023-03-11T03:07:38.133Z,100942.44
2023-03-11T03:10:06.337Z,100954.13
2023-03-11T03:12:32.784Z,100947.16
2023-03-11T03:14:59.266Z,100949.06
2023-03-11T03:17:25.993Z,100952.53
2023-03-11T03:19:52.524Z,100956.09
2023-03-11T03:22:19.048Z,100960.59
2023-03-11T03:24:46.387Z,100962.41
2023-03-11T03:27:12.841Z,100967.84
2023-03-11T03:29:40.469Z,100974.97
2023-03-11T03:32:07.533Z,100972.41
2023-03-11T03:34:34.477Z,100980.41
2023-03-11T03:37:01.012Z,100978.72
2023-03-11T03:39:30.379Z,100977.88
2023-03-11T03:41:57.172Z,100984.97
2023-03-11T03:44:26.125Z,100996.53
2023-03-11T03:46:52.609Z,100991.19
2023-03-11T03:49:19.318Z,101003.56
2023-03-11T03:51:46.573Z,101002.63
2023-03-11T03:54:21.080Z,101005.22
2023-03-11T03:56:47.575Z,101006.84
2023-03-11T03:59:14.106Z,101005.91
2023-03-11T04:01:46.157Z,101016.41
2023-03-11T04:04:12.691Z,101016.34
2023-03-11T04:06:39.278Z,101021.63
2023-03-11T04:09:07.134Z,101025.13
2023-03-11T04:11:35.007Z,101026.88
2023-03-11T04:14:03.897Z,101024.19
2023-03-11T04:16:32.788Z,101033.94
2023-03-11T04:19:07.053Z,101025.16
2023-03-11T04:21:34.696Z,101029.66
2023-03-11T04:24:01.572Z,101035.06
2023-03-11T04:26:32.410Z,101031.72
2023-03-11T04:28:59.083Z,101037.94
2023-03-11T04:31:28.434Z,101036.38
2023-03-11T04:33:56.025Z,101026.84
2023-03-11T04:36:22.736Z,101025.22
2023-03-11T04:38:49.545Z,101028.88
2023-03-11T04:41:16.771Z,101036.00
2023-03-11T04:43:44.538Z,101039.66
2023-03-11T04:46:11.181Z,101045.91
2023-03-11T04:48:39.693Z,101050.34
2023-03-11T04:51:07.694Z,101047.72
2023-03-11T04:53:34.632Z,101054.81
2023-03-11T04:56:01.577Z,101058.38
2023-03-11T04:58:28.862Z,101057.56
2023-03-11T05:00:56.254Z,101054.91
2023-03-11T05:03:23.113Z,101062.03
2023-03-11T05:05:50.025Z,101055.00
2023-03-11T05:08:19.138Z,101063.84
2023-03-11T05:10:45.618Z,101063.88
2023-03-11T05:13:12.174Z,101056.94
2023-03-11T05:15:40.300Z,101051.72
2023-03-11T05:18:07.508Z,101056.16
2023-03-11T05:20:36.206Z,101055.34
2023-03-11T05:23:03.703Z,101053.66
2023-03-11T05:25:32.256Z,101062.56
2023-03-11T05:27:58.944Z,101065.28
2023-03-11T05:30:25.624Z,101075.97
2023-03-11T05:32:52.459Z,101081.34
2023-03-11T05:35:20.691Z,101077.84
2023-03-11T05:37:49.649Z,101087.59
2023-03-11T05:40:17.818Z,101085.00
2023-03-11T05:42:44.338Z,101088.56
2023-03-11T05:45:13.353Z,101092.13
2023-03-11T05:47:42.334Z,101095.63
2023-03-11T05:50:11.984Z,101093.88
2023-03-11T05:52:39.662Z,101093.03
2023-03-11T05:55:06.815Z,101097.41
2023-03-11T05:57:33.615Z,101099.16
2023-03-11T06:00:01.058Z,101109.81
2023-03-11T06:02:27.544Z,101115.09
2023-03-11T06:04:54.788Z,101111.59
2023-03-11T06:07:21.346Z,101120.38
2023-03-11T06:09:50.256Z,101122.13
2023-03-11T06:12:18.002Z,101116.78
2023-03-11T06:15:13.355Z,101120.31
2023-03-11T06:17:40.810Z,101123.75
2023-03-11T06:20:09.881Z,101121.09
2023-03-11T06:22:39.642Z,101128.97
2023-03-11T06:25:07.957Z,101128.03
2023-03-11T06:27:35.018Z,101124.53
2023-03-11T06:30:02.697Z,101130.63
2023-03-11T06:32:35.373Z,101138.56
2023-03-11T06:35:01.952Z,101153.53
2023-03-11T06:37:28.634Z,101155.28
2023-03-11T06:39:56.218Z,101161.44
2023-03-11T06:42:24.672Z,101156.97
2023-03-11T06:44:53.379Z,101156.03
2023-03-11T06:47:20.285Z,101159.47
2023-03-11T06:49:47.604Z,101164.69
2023-03-11T06:52:14.119Z,101159.31
2023-03-11T06:54:40.703Z,101163.59
2023-03-11T06:57:09.032Z,101162.59
2023-03-11T06:59:36.612Z,101163.38
2023-03-11T07:02:05.526Z,101164.22
2023-03-11T07:04:33.107Z,101162.31
2023-03-11T07:06:59.659Z,101171.94
2023-03-11T07:09:27.708Z,101177.09
2023-03-11T07:11:54.451Z,101188.34
2023-03-11T07:14:27.479Z,101192.53
2023-03-11T07:16:56.133Z,101187.91
2023-03-11T07:19:28.605Z,101183.25
2023-03-11T07:21:55.030Z,101163.94
2023-03-11T07:24:21.896Z,101159.78
2023-03-11T07:26:48.445Z,101152.19
2023-03-11T07:29:15.183Z,101153.56
2023-03-11T07:31:41.883Z,101154.97
2023-03-11T07:34:14.164Z,101163.28
2023-03-11T07:36:42.275Z,101159.81
2023-03-11T07:39:14.090Z,101171.03
2023-03-11T07:41:40.609Z,101164.34
2023-03-11T07:44:09.849Z,101154.75
2023-03-11T07:46:36.466Z,101159.69
2023-03-11T07:49:03.670Z,101157.63
2023-03-11T07:51:33.238Z,101163.66
2023-03-11T07:54:00.918Z,101171.44
2023-03-11T07:56:31.081Z,101185.44
2023-03-11T07:58:59.082Z,101194.94
2023-03-11T08:01:30.374Z,101208.56
2023-03-11T08:03:58.612Z,101214.59
2023-03-11T08:06:29.075Z,101217.94
2023-03-11T08:08:55.559Z,101212.81
2023-03-11T08:11:22.538Z,101221.13
2023-03-11T08:13:50.252Z,101231.53
2023-03-11T08:16:21.228Z,101233.88
2023-03-11T08:18:49.689Z,101232.47
2023-03-11T08:21:18.759Z,101226.78
2023-03-11T08:23:47.830Z,101205.69
2023-03-11T08:26:15.988Z,101207.38
2023-03-11T08:28:43.520Z,101204.38
2023-03-11T08:31:24.145Z,101205.09
2023-03-11T08:33:52.320Z,101204.19
2023-03-11T08:36:19.850Z,101203.75
2023-03-11T08:38:46.752Z,101195.28
2023-03-11T08:41:14.397Z,101198.72
2023-03-11T08:43:42.275Z,101202.84
2023-03-11T08:46:09.163Z,101212.91
2023-03-11T08:48:37.626Z,101211.13
2023-03-11T08:51:10.641Z,101210.84
2023-03-11T08:53:37.658Z,101211.75
2023-03-11T08:56:04.473Z,101211.13
2023-03-11T08:58:30.960Z,101201.34
2023-03-11T09:00:57.480Z,101207.44
2023-03-11T09:03:24.000Z,101217.91
2023-03-11T09:05:57.238Z,101228.47
2023-03-11T09:08:23.764Z,101234.69
2023-03-11T09:10:50.213Z,101238.25
2023-03-11T09:13:16.708Z,101232.59
2023-03-11T09:15:43.166Z,101241.34
2023-03-11T09:18:13.958Z,101245.66
2023-03-11T09:20:41.657Z,101262.06
2023-03-11T09:23:09.176Z,101258.50
2023-03-11T09:25:35.676Z,101261.03
2023-03-11T09:28:02.227Z,101261.31
2023-03-11T09:30:28.867Z,101255.06
2023-03-11T09:32:55.482Z,101261.56
2023-03-11T09:35:22.287Z,101254.00
2023-03-11T09:37:48.794Z,101264.72
2023-03-11T09:40:17.616Z,101257.06
2023-03-11T09:43:23.627Z,101253.06
2023-03-11T09:46:01.082Z,101247.44
2023-03-11T09:48:53.005Z,101241.97
2023-03-11T09:51:32.681Z,101243.53
2023-03-11T09:54:04.240Z,101249.38
2023-03-11T09:56:33.909Z,101257.88
2023-03-11T09:59:06.306Z,101256.63
2023-03-11T10:01:37.350Z,101247.03
2023-03-11T10:04:16.632Z,101249.13
2023-03-11T10:06:47.657Z,101248.47
2023-03-11T10:09:52.032Z,101264.06
2023-03-11T10:12:27.275Z,101259.00
2023-03-11T10:15:02.692Z,101262.44
2023-03-11T10:18:03.196Z,101263.78
2023-03-11T10:21:04.305Z,101273.50
2023-03-11T10:24:04.565Z,101269.31
2023-03-11T10:27:02.337Z,101274.56
2023-03-11T10:30:08.980Z,101268.25
2023-03-11T10:32:44.913Z,101256.78
2023-03-11T10:35:21.917Z,101253.16
2023-03-11T10:37:54.800Z,101256.59
2023-03-11T10:40:35.261Z,101268.44
2023-03-11T10:43:12.399Z,101267.00
2023-03-11T10:45:43.300Z,101264.31
2023-03-11T10:48:15.755Z,101251.06
2023-03-11T10:50:50.873Z,101256.25
2023-03-11T10:53:20.212Z,101253.78
2023-03-11T10:55:58.734Z,101256.75
2023-03-11T10:58:28.384Z,101266.66
2023-03-11T11:01:07.720Z,101249.53
2023-03-11T11:03:34.845Z,101257.28
2023-03-11T11:06:07.555Z,101268.63
2023-03-11T11:08:34.384Z,101265.06
2023-03-11T11:11:03.364Z,101267.38
2023-03-11T11:13:34.279Z,101267.34
2023-03-11T11:16:03.489Z,101266.59
2023-03-11T11:18:46.277Z,101271.00
2023-03-11T11:21:37.200Z,101270.06
2023-03-11T11:24:12.757Z,101254.84
2023-03-11T11:26:39.279Z,101270.28
2023-03-11T11:29:09.026Z,101263.44
2023-03-11T11:31:44.590Z,101267.53
2023-03-11T11:34:33.618Z,101263.59
2023-03-11T11:37:04.179Z,101274.75
2023-03-11T11:39:38.698Z,101273.75
2023-03-11T11:42:06.219Z,101268.81
2023-03-11T11:44:34.565Z,101274.53
2023-03-11T11:47:13.430Z,101279.63
2023-03-11T11:49:48.945Z,101276.72
2023-03-11T11:52:23.662Z,101275.75
2023-03-11T11:54:58.829Z,101278.66
2023-03-11T11:57:25.524Z,101275.88
2023-03-11T11:59:52.089Z,101282.13
2023-03-11T12:02:41.454Z,101279.09
2023-03-11T12:05:17.264Z,101279.91
2023-03-11T12:08:00.023Z,101290.69
2023-03-11T12:10:32.726Z,101288.31
2023-03-11T12:13:17.880Z,101282.78
2023-03-11T12:15:53.232Z,101280.66
2023-03-11T12:18:35.883Z,101286.03
2023-03-11T12:21:31.433Z,101277.69
2023-03-11T12:24:35.782Z,101277.44
2023-03-11T12:27:10.668Z,101263.81
2023-03-11T12:29:43.073Z,101266.94
2023-03-11T12:32:19.827Z,101265.28
2023-03-11T12:34:48.832Z,101260.38
2023-03-11T12:37:18.344Z,101260.31
2023-03-11T12:39:44.770Z,101255.78
2023-03-11T12:42:11.149Z,101263.16
2023-03-11T12:44:39.026Z,101263.06
2023-03-11T12:47:08.265Z,101256.81
2023-03-11T12:49:43.922Z,101260.47
2023-03-11T12:52:16.042Z,101255.75
2023-03-11T12:55:01.304Z,101248.06
2023-03-11T12:57:36.362Z,101258.44
2023-03-11T13:00:23.003Z,101252.28
2023-03-11T13:03:04.859Z,101262.19
2023-03-11T13:05:58.962Z,101257.69
2023-03-11T13:09:03.990Z,101263.56
2023-03-11T13:11:33.405Z,101262.69
2023-03-11T13:14:11.912Z,101271.25
2023-03-11T13:16:40.188Z,101257.09
2023-03-11T13:19:31.997Z,101253.28
2023-03-11T13:22:00.073Z,101251.72
2023-03-11T13:24:26.906Z,101254.97
2023-03-11T13:27:07.895Z,101257.50
2023-03-11T13:29:44.419Z,101258.94
2023-03-11T13:32:35.097Z,101251.25
2023-03-11T13:35:28.461Z,101244.91
2023-03-11T13:38:03.817Z,101244.13
2023-03-11T13:40:38.399Z,101248.66
2023-03-11T13:43:11.563Z,101255.47
2023-03-11T13:45:38.840Z,101255.09
2023-03-11T13:48:16.530Z,101257.00
2023-03-11T13:50:51.978Z,101257.88
2023-03-11T13:53:28.801Z,101252.22
2023-03-11T13:55:55.312Z,101260.38
2023-03-11T13:58:24.913Z,101256.06
2023-03-11T14:01:02.385Z,101257.50
2023-03-11T14:03:36.433Z,101261.63
2023-03-11T14:06:06.875Z,101264.50
2023-03-11T14:08:38.543Z,101267.72
2023-03-11T14:11:10.753Z,101266.03
2023-03-11T14:13:41.765Z,101269.91
2023-03-11T14:16:22.576Z,101269.69
2023-03-11T14:19:01.773Z,101278.03
2023-03-11T14:21:28.249Z,101283.13
2023-03-11T14:23:55.874Z,101272.09
2023-03-11T14:26:26.199Z,101285.34
2023-03-11T14:28:55.803Z,101287.88
2023-03-11T14:31:32.621Z,101289.72
2023-03-11T14:34:04.799Z,101292.69
2023-03-11T14:36:40.344Z,101285.31
2023-03-11T14:39:22.548Z,101288.50
2023-03-11T14:41:52.664Z,101289.19
2023-03-11T14:44:20.087Z,101286.78
2023-03-11T14:46:49.738Z,101291.97
2023-03-11T14:49:21.180Z,101289.97
2023-03-11T14:52:00.472Z,101291.09
2023-03-11T14:54:32.043Z,101287.41
2023-03-11T14:57:18.940Z,101290.59
2023-03-11T14:59:49.541Z,101286.69
2023-03-11T15:02:42.676Z,101286.97
2023-03-11T15:05:20.987Z,101281.13
2023-03-11T15:07:50.549Z,101288.22
2023-03-11T15:10:16.988Z,101284.66
2023-03-11T15:12:45.638Z,101294.47
2023-03-11T15:15:38.559Z,101304.53
2023-03-11T15:18:21.473Z,101293.97
2023-03-11T15:21:21.019Z,101293.78
2023-03-11T15:23:48.993Z,101292.91
2023-03-11T15:26:19.586Z,101287.53
2023-03-11T15:28:46.014Z,101282.94
2023-03-11T15:31:21.301Z,101282.88
2023-03-11T15:33:51.798Z,101286.78
2023-03-11T15:36:32.724Z,101282.59
2023-03-11T15:39:13.739Z,101285.38
2023-03-11T15:42:03.640Z,101284.63
2023-03-11T15:44:43.109Z,101283.22
2023-03-11T15:47:15.397Z,101278.09
2023-03-11T15:49:45.341Z,101278.59
2023-03-11T15:52:12.383Z,101278.22
2023-03-11T15:54:39.699Z,101271.81
2023-03-11T15:57:10.597Z,101269.81
2023-03-11T15:59:38.569Z,101286.31
2023-03-11T16:02:21.067Z,101276.31
2023-03-11T16:04:47.709Z,101281.31
2023-03-11T16:07:14.373Z,101278.78
2023-03-11T16:09:40.846Z,101281.56
2023-03-11T16:12:22.168Z,101280.22
2023-03-11T16:14:51.344Z,101278.63
2023-03-11T16:17:18.995Z,101274.78
2023-03-11T16:19:47.986Z,101270.84
2023-03-11T16:22:31.073Z,101273.91
2023-03-11T16:24:59.563Z,101284.50
2023-03-11T16:27:26.023Z,101283.75
2023-03-11T16:29:52.446Z,101283.94
2023-03-11T16:32:18.908Z,101280.03
2023-03-11T16:34:45.626Z,101283.44
2023-03-11T16:37:16.171Z,101277.97
2023-03-11T16:39:42.698Z,101276.69
2023-03-11T16:42:09.802Z,101286.84
2023-03-11T16:44:36.243Z,101284.31
2023-03-11T16:47:02.640Z,101290.94
2023-03-11T16:49:29.263Z,101289.66
2023-03-11T16:51:55.801Z,101286.47
2023-03-11T16:54:22.434Z,101285.09
2023-03-11T16:56:48.879Z,101289.06
2023-03-11T16:59:15.376Z,101296.59
2023-03-11T17:01:42.200Z,101291.72
2023-03-11T17:04:08.703Z,101293.00
2023-03-11T17:06:35.222Z,101296.97
2023-03-11T17:09:01.803Z,101298.19
2023-03-11T17:11:30.306Z,101296.00
2023-03-11T17:14:10.105Z,101292.84
2023-03-11T17:16:42.452Z,101293.28
2023-03-11T17:19:08.965Z,101297.28
2023-03-11T17:21:35.439Z,101294.00
2023-03-11T17:24:01.934Z,101290.00
2023-03-11T17:26:30.925Z,101293.94
2023-03-11T17:28:57.530Z,101300.47
2023-03-11T17:31:24.198Z,101305.31
2023-03-11T17:33:50.750Z,101302.03
2023-03-11T17:36:18.056Z,101304.09
2023-03-11T17:38:46.142Z,101309.00
2023-03-11T17:41:15.505Z,101301.44
2023-03-11T17:43:43.087Z,101313.34
2023-03-11T17:46:14.203Z,101322.72
2023-03-11T17:48:45.854Z,101324.00
2023-03-11T17:51:15.687Z,101316.59
2023-03-11T17:53:45.807Z,101326.69
2023-03-11T17:56:14.518Z,101314.63
2023-03-11T17:58:40.987Z,101324.91
2023-03-11T18:01:16.359Z,101324.25
2023-03-11T18:03:43.198Z,101327.06
2023-03-11T18:06:11.102Z,101335.31
2023-03-11T18:08:37.651Z,101331.13
2023-03-11T18:11:06.803Z,101344.66
2023-03-11T18:13:34.438Z,101345.09
2023-03-11T18:16:05.194Z,101342.84
2023-03-11T18:18:32.904Z,101348.50
2023-03-11T18:21:11.646Z,101348.91
2023-03-11T18:23:39.221Z,101349.25
2023-03-11T18:26:07.715Z,101355.50
2023-03-11T18:28:35.297Z,101344.31
2023-03-11T18:31:29.800Z,101350.78
2023-03-11T18:34:02.697Z,101351.63
2023-03-11T18:36:32.328Z,101358.72
2023-03-11T18:39:00.321Z,101356.72
2023-03-11T18:41:30.059Z,101355.75
2023-03-11T18:43:57.782Z,101357.34
2023-03-11T18:46:26.264Z,101359.06
2023-03-11T18:48:53.815Z,101358.94
2023-03-11T18:51:20.466Z,101357.97
2023-03-11T18:53:46.931Z,101348.06
2023-03-11T18:56:15.960Z,101360.50
2023-03-11T18:58:43.110Z,101357.78
2023-03-11T19:01:15.686Z,101352.41
2023-03-11T19:03:43.287Z,101359.41
2023-03-11T19:06:12.423Z,101363.81
2023-03-11T19:08:39.611Z,101356.78
2023-03-11T19:11:14.623Z,101350.56
2023-03-11T19:13:47.107Z,101363.22
2023-03-11T19:16:16.187Z,101352.84
2023-03-11T19:18:42.772Z,101349.53
2023-03-11T19:21:12.301Z,101347.91
2023-03-11T19:23:38.899Z,101350.69
2023-03-11T19:26:06.082Z,101343.75
2023-03-11T19:28:32.695Z,101347.44
2023-03-11T19:30:59.699Z,101340.56
2023-03-11T19:33:26.770Z,101341.69
2023-03-11T19:35:58.430Z,101338.28
2023-03-11T19:38:26.163Z,101334.91
2023-03-11T19:41:14.288Z,101345.81
2023-03-11T19:43:41.801Z,101347.84
2023-03-11T19:46:12.180Z,101346.44
2023-03-11T19:48:38.840Z,101347.41
2023-03-11T19:51:05.927Z,101348.69
2023-03-11T19:53:34.077Z,101345.44
2023-03-11T19:56:01.485Z,101346.38
2023-03-11T19:58:30.459Z,101350.81
2023-03-11T20:00:58.253Z,101353.66
2023-03-11T20:03:25.436Z,101354.69
2023-03-11T20:05:54.681Z,101347.59
2023-03-11T20:08:21.637Z,101347.66
2023-03-11T20:10:50.252Z,101346.91
2023-03-11T20:13:20.123Z,101351.28
2023-03-11T20:15:47.058Z,101344.25
2023-03-11T20:18:13.723Z,101362.94
2023-03-11T20:20:43.044Z,101351.47
2023-03-11T20:23:09.826Z,101358.69
2023-03-11T20:25:39.053Z,101357.94
2023-03-11T20:28:05.865Z,101359.03
2023-03-11T20:30:32.435Z,101354.78
2023-03-11T20:32:58.955Z,101354.91
2023-03-11T20:35:25.470Z,101359.44
2023-03-11T20:37:52.017Z,101364.88
2023-03-11T20:40:19.026Z,101363.19
2023-03-11T20:42:47.222Z,101361.47
2023-03-11T20:45:17.451Z,101359.78
2023-03-11T20:47:44.420Z,101362.44
2023-03-11T20:50:12.553Z,101362.63
2023-03-11T20:52:39.316Z,101356.41
2023-03-11T20:55:08.292Z,101361.69
2023-03-11T20:57:35.117Z,101363.47
2023-03-11T21:00:01.656Z,101358.16
2023-03-11T21:02:30.804Z,101362.53
2023-03-11T21:04:57.491Z,101360.75
2023-03-11T21:07:24.017Z,101357.13
2023-03-11T21:09:54.383Z,101348.19
2023-03-11T21:12:21.852Z,101354.22
2023-03-11T21:14:48.499Z,101353.16
2023-03-11T21:17:15.550Z,101360.19
2023-03-11T21:19:42.228Z,101345.13
2023-03-11T21:22:08.965Z,101351.38
2023-03-11T21:24:35.408Z,101353.94
2023-03-11T21:27:02.096Z,101351.28
2023-03-11T21:29:30.624Z,101353.94
2023-03-11T21:31:58.506Z,101348.53
2023-03-11T21:34:25.092Z,101347.66
2023-03-11T21:36:51.583Z,101346.72
2023-03-11T21:39:18.341Z,101344.91
2023-03-11T21:41:44.878Z,101343.09
2023-03-11T21:44:11.424Z,101339.50
2023-03-11T21:46:38.210Z,101335.97
2023-03-11T21:49:04.867Z,101337.72
2023-03-11T21:51:31.422Z,101334.09
2023-03-11T21:53:59.135Z,101334.19
2023-03-11T21:56:25.774Z,101339.56
2023-03-11T21:58:53.675Z,101336.94
2023-03-11T22:01:20.284Z,101343.97
2023-03-11T22:03:48.028Z,101334.38
2023-03-11T22:06:15.573Z,101330.09
2023-03-11T22:08:44.965Z,101340.94
2023-03-11T22:11:17.359Z,101339.34
2023-03-11T22:13:45.575Z,101338.72
2023-03-11T22:16:12.513Z,101338.78
2023-03-11T22:18:39.720Z,101348.63
2023-03-11T22:21:07.221Z,101342.53
2023-03-11T22:23:35.235Z,101339.03
2023-03-11T22:26:02.676Z,101331.09
2023-03-11T22:28:29.569Z,101333.75
2023-03-11T22:30:56.073Z,101329.50
2023-03-11T22:33:22.634Z,101334.91
2023-03-11T22:35:57.328Z,101332.38
2023-03-11T22:38:24.113Z,101335.00
2023-03-11T22:40:51.380Z,101333.25
2023-03-11T22:43:18.011Z,101332.41
2023-03-11T22:45:45.528Z,101327.22
2023-03-11T22:48:12.452Z,101322.84
2023-03-11T22:50:45.168Z,101316.78
2023-03-11T22:53:12.751Z,101313.34
2023-03-11T22:55:44.599Z,101326.56
2023-03-11T22:58:11.498Z,101315.94
2023-03-11T23:00:38.179Z,101318.59
2023-03-11T23:03:04.752Z,101317.56
2023-03-11T23:05:31.272Z,101320.25
2023-03-11T23:07:57.742Z,101316.66
2023-03-11T23:10:24.224Z,101314.00
2023-03-11T23:12:50.673Z,101315.66
2023-03-11T23:15:19.244Z,101308.50
2023-03-11T23:17:46.145Z,101310.19
2023-03-11T23:20:15.623Z,101302.94
2023-03-11T23:22:42.523Z,101308.16
2023-03-11T23:25:13.260Z,101298.28
2023-03-11T23:27:41.736Z,101296.47
2023-03-11T23:30:10.599Z,101300.81
2023-03-11T23:32:37.097Z,101298.03
2023-03-11T23:35:04.228Z,101298.84
2023-03-11T23:37:30.745Z,101296.13
2023-03-11T23:39:57.293Z,101301.34
2023-03-11T23:42:26.136Z,101304.81
2023-03-11T23:44:53.407Z,101304.75
2023-03-11T23:47:19.861Z,101297.56
2023-03-11T23:49:46.298Z,101293.94
2023-03-11T23:52:12.689Z,101284.97
2023-03-11T23:54:39.094Z,101276.97
2023-03-11T23:57:05.561Z,101277.84
2023-03-11T23:59:32.084Z,101275.94
